Hlavní strana
METAR-TAF:

METAR-TAF

Letiště :

Nioro du Sahel, Mali

zeměpisná šířka: 15-14N, zeměpisná délka: 009-21W, výška: 235 m

Aktuální stav počasí

Zpráva byla vytvořena před 3 hodinami a 30 minutami, v 21:00 UTC
Severoseverovýchodní vítr 2 kt
Teplota 33°C
Vlhkost vzduchu 23%
Tlak 1010 hPa
Viditelnost 10 km a více
Žádná oblačnost pod 1500 m, nevyskytují se cumulonimby.

METAR: GANR 192100Z 02002KT CAVOK 33/09 Q1010

Čas: 00:30 (00:30 UTC)


TAF: chybějící

Stav a předpovědi počasí z více než 4 000 letišť (zprávy METAR a TAF).

Červené a žluté tečky na mapě představují dostupné meteorologické stanice.

Když kurzor umístíte na tečku, zobrazí se název stanice.

Pak kliknutím zobrazíte stav a předpověď počasí.

Chcete-li změnit mapu, kliknutím na zelené tlačítko se znaménkem +mapu přiblížíte, kliknutím na zelené tlačítko se znaménkem – mapu oddálíte a kliknutím na zelené šipky přejdete na sousední mapy.


METAR-TAF: